ジョン・F・ケネディ国際空港の過去48時間の天気

ジョン・F・ケネディ国際空港 (New York, Kennedy International Airport)

現在時刻: 11/20 04:40 EST (11/20 09:40 UTC) 以下の時間は現地時間です。

過去48時間のMETAR気象情報
時間 風向 風速(m/s) 視程 気温(℃) 湿度(%) 気圧(hPa) 天気現象
20 03:51 西北西 6 10km以上 3.9 57 1013.1
20 02:51 西 7 10km以上 3.9 62 1012.1
20 01:51 西 10 10km以上 4.4 62 1011.1
20 00:51 西 8 10km以上 5 55 1010.2
19 23:51 西 9 10km以上 5 65 1009.5
19 22:51 北西 9 10km以上 5.6 64 1008.9
19 21:51 西 7 10km以上 6.1 65 1008.1
19 20:51 西 5 10km以上 7.8 47 1007.3
19 19:51 西北西 7 10km以上 7.8 45 1006.5
19 18:51 西北西 5 10km以上 7.8 43 1005.7
19 17:51 北西 11 10km以上 7.8 42 1005
19 16:51 北西 8 10km以上 7.2 47 1003.4
19 15:51 西北西 10 10km以上 8.3 45 1002.4
19 14:51 北西 12 10km以上 9.4 48 1000.9
19 13:51 北西 13 10km以上 10.6 46 999.2
19 12:51 西北西 9 10km以上 11.1 46 999
19 11:51 西 16 10km以上 11.1 46 998.3
19 10:51 西北西 13 10km以上 11.7 50 997
19 09:51 西 13 10km以上 11.7 61 995.3
19 08:51 西 10 10km以上 11.7 69 993.4
19 07:51 西南西 11 8,050m 13.9 89 991.1 弱い雨 もや
19 06:51 南南西 10 10km以上 14.4 93 990.4 弱い雨
19 05:51 南南西 9 10km以上 13.9 96 990.9 弱い雨
19 04:51 南南西 9 8,050m 13.9 96 991.6 弱い雨 もや
19 03:51 南南西 10 10km以上 13.9 96 992.6 弱い雨 もや
19 02:51 10 10km以上 13.3 97 993.5 弱い雨 もや
19 01:51 10 10km以上 13.9 87 993.9
19 00:51 9 10km以上 12.8 93 995.3
18 23:51 10 10km以上 13.3 93 996.5
18 22:51 10 10km以上 13.3 93 997.5
18 21:51 8 10km以上 12.8 93 999.5 弱い雨
18 20:51 3 10km以上 10 93 1001 弱い雨
18 19:51 南南西 6 10km以上 10.6 83 1002.5
18 18:51 南南西 6 8,050m 10.6 89 1003.3 雨 もや
18 17:51 南南西 7 10km以上 11.1 86 1003.8 弱い雨
18 16:51 南南西 9 10km以上 11.1 83 1004.3 弱い雨
18 15:51 9 10km以上 11.1 80 1005.3 弱い雨
18 14:51 10 10km以上 11.1 69 1005.5 弱い雨
KJFK 200851Z 29012KT 10SM FEW045 BKN075 04/M04 A2992 RMK AO2 SLP131 60000 T00391039 53029
KJFK 200751Z 27014KT 10SM FEW049 BKN060 OVC080 04/M03 A2989 RMK AO2 PK WND 28028/0715 RAB0657E06 SLP121 P0000 T00391028
KJFK 200651Z 27020KT 10SM OVC060 04/M02 A2986 RMK AO2 PK WND 27026/0640 RAB23E33 SLP111 VCSH SE AND W P0000 T00441022
KJFK 200551Z 28015G21KT 10SM SCT070 05/M03 A2983 RMK AO2 SLP102 T00501033 10083 20044 51021
KJFK 200451Z 28017G22KT 10SM FEW035 SCT065 05/M01 A2981 RMK AO2 SLP095 T00501011 401440044
KJFK 200351Z 32017G25KT 10SM FEW038 OVC060 06/M01 A2980 RMK AO2 SLP089 VCSH NW-N T00561006
KJFK 200251Z 27013KT 10SM SCT060 BKN090 06/00 A2977 RMK AO2 SLP081 T00610000 52024
KJFK 200151Z 28010KT 10SM SCT050 OVC070 08/M03 A2975 RMK AO2 CIG 050 W SLP073 T00781028
KJFK 200051Z 30014G23KT 10SM OVC075 08/M03 A2972 RMK AO2 SLP065 T00781033
KJFK 192351Z 30010KT 10SM BKN065 08/M04 A2970 RMK AO2 SLP057 T00781039 10111 20072 51033
KJFK 192251Z 31021G28KT 10SM BKN060 08/M04 A2968 RMK AO2 PK WND 31028/2251 SLP050 T00781044
KJFK 192151Z 32016G21KT 10SM SCT050 07/M03 A2963 RMK AO2 PK WND 32033/2101 SLP034 T00721033
KJFK 192051Z 30019G28KT 10SM SCT050 08/M03 A2960 RMK AO2 PK WND 31035/2019 SLP024 T00831028 53035
KJFK 191951Z 32023G30KT 10SM BKN050 09/M01 A2956 RMK AO2 PK WND 31041/1924 SLP009 T00941011
KJFK 191851Z 31026G34KT 10SM BKN050 11/M01 A2951 RMK AO2 PK WND 31035/1754 SLP992 T01061006
KJFK 191751Z 30018G31KT 10SM BKN050 11/00 A2950 RMK AO2 PK WND 30044/1706 SLP990 60002 T01110000 10144 20100 51037
KJFK 191651Z 28031G41KT 10SM BKN050 11/00 A2948 RMK AO2 PK WND 29041/1617 PRESRR SLP983 T01110000
KJFK 191551Z 30026G34KT 10SM BKN047 BKN200 12/02 A2944 RMK AO2 PK WND 29037/1518 SLP970 T01170017
KJFK 191451Z 28025G35KT 10SM FEW035 BKN044 BKN100 BKN200 12/04 A2939 RMK AO2 PK WND 26035/1408 PRESRR SLP953 60002 T01170044 53049
KJFK 191351Z 28019G36KT 10SM SCT037 BKN044 BKN100 BKN200 12/06 A2934 RMK AO2 PK WND 28042/1306 RAE04 PRESRR SLP934 P0000 T01170061
KJFK 191251Z 25022G31KT 5SM -RA BR SCT018 BKN024 OVC040 14/12 A2927 RMK AO2 PK WND 25031/1247 SLP911 P0002 T01390122
KJFK 191151Z 21019G25KT 10SM -RA BKN021 OVC075 14/13 A2925 RMK AO2 SLP904 P0002 60023 70043 T01440133 10144 20128 56022
KJFK 191051Z 20017KT 7SM -RA BKN022 BKN060 OVC090 14/13 A2926 RMK AO2 SLP909 P0007 T01390133
KJFK 190951Z 20017KT 5SM -RA BR BKN019 OVC080 14/13 A2928 RMK AO2 PK WND 21026/0932 SLP916 P0009 T01390133
KJFK 190851Z 21019KT 6SM -RA BR BKN021 OVC060 14/13 A2931 RMK AO2 SLP926 P0003 60005 T01390133 56027
KJFK 190751Z 19020KT 6SM -RA BR BKN030 OVC060 13/13 A2934 RMK AO2 RAB08 SLP935 P0002 T01330128
KJFK 190651Z 18019KT 10SM BKN065 OVC080 14/12 A2935 RMK AO2 SLP939 T01390117
KJFK 190551Z 19018KT 10SM FEW080 SCT120 SCT150 BKN180 13/12 A2939 RMK AO2 SLP953 60015 T01280117 10139 20100 56042
KJFK 190451Z 19020KT 10SM FEW080 FEW110 OVC170 13/12 A2943 RMK AO2 PK WND 18027/0415 SLP965 P0001 T01330122 401391022
KJFK 190351Z 18020G26KT 10SM FEW080 BKN110 OVC150 13/12 A2946 RMK AO2 PK WND 18026/0343 RAE0252B30E41 SLP975 P0001 T01330122
KJFK 190251Z 18016KT 10SM -RA FEW090 BKN110 OVC150 13/12 A2952 RMK AO2 RAE0154B10 SLP995 P0000 60013 T01280117 58038
KJFK 190151Z 17006KT 10SM -RA BKN070 BKN090 OVC110 10/09 A2956 RMK AO2 RAB0056 SLP010 P0003 T01000089
KJFK 190051Z 21012KT 10SM FEW036 BKN050 OVC090 11/08 A2961 RMK AO2 RAE32 SLP025 P0010 T01060078
KJFK 182351Z 21011KT 5SM RA BR FEW060 SCT070 OVC090 11/09 A2963 RMK AO2 SLP033 P0002 60005 T01060089 10117 20106 56020
KJFK 182251Z 20013KT 8SM -RA BKN060 BKN075 OVC090 11/09 A2965 RMK AO2 SLP038 P0002 T01110089
KJFK 182151Z 20018KT 10SM -RA BKN075 OVC090 11/08 A2966 RMK AO2 SLP043 P0001 T01110083
KJFK 182051Z 19017KT 10SM -RA BKN075 OVC090 11/08 A2969 RMK AO2 PK WND 19028/2001 SLP053 P0000 60000 T01110078 56037
KJFK 181951Z 18020G30KT 10SM -RA FEW075 BKN090 OVC140 11/06 A2970 RMK AO2 PK WND 19030/1949 RAE03B44 SLP055 P0000 T01110056